Airfield :
LOGIN :

Register | Disclaimer

   EN    FR    IT 

 










Legend :    VFR   Marginal VFR   IFR   Intensive IFR   Very Intensive IFR
Visi :
Ceiling :
>= 8 km
>= 3000ft
5 to 8 km
1000 to 3000 ft
1500m to 5 km
500 to 1000 ft
800 to 1500m
200 to 500 ft
< 800m
< 200 ft
Symbols :   Thunderstorms  Fog  Heavy snow  Heavy precipitations  Wind > 20 kt
SIGMETs :     Misc.  Thunderstorms  Icing  Turbulence  Mountain Waves  Volcanic Ashes







- Airport Elevation : 782 ft
- IATA code : BGY


LIME - Orio al Serio International - Bergamo

CURRENT METAR :
  • 220850Z 00000KT 8000 FEW040 09/04 Q1021 NOSIG

EXPIRED METARs :
  • 220820Z VRB02KT 8000 FEW040 07/04 Q1021 NOSIG
  • 220750Z 05004KT 340V140 8000 FEW035 07/05 Q1020 NOSIG
  • 220720Z 33004KT 8000 FEW035 05/03 Q1020 NOSIG
  • 220650Z VRB02KT 7000 SCT035 06/03 Q1020 NOSIG
  • 220620Z VRB02KT 7000 BKN035 06/04 Q1019 NOSIG

TAF TAF LIME
Valid from the 22 at 06:00 until the 23 at 06:00 UTC


220500Z 2206/2306 VRB05KT 7000 BKN030
TEMPO 2222/2306 DZ
No reported NOTAMs for that airfield.



MET'MAP, your aeronautical weather chart ! - Copyright ORBIFLY December 2007 - Disclaimer

ORBIFLY MET'MAP TEAM :

Programming & Development : Alexandra Zaïnal
Concept & Development : Baudouin d'Aumeries
Co-Development & Prog : Marc-Olivier Méhu
Technical & hardware support : Manuel Goepfert

Contact : metmap@orbifly.com




SOURCES & CREDITS :

   NOAA